Time;durP1;ratioP1;P1;durP2;ratioP2;P2;SDS_P1;SDS_P2;PMS_P1;PMS_P2;Temp;Humidity;BMP_temperature;BMP_pressure;BME280_temperature;BME280_humidity;BME280_pressure;Samples;Min_cycle;Max_cycle;Signal;HPM_P1;HPM_P2
2022/04/18 00:00:58;;;;;;;11.07;5.43;;;;;;;;;;5068389;28;20144;-67
2022/04/18 00:03:24;;;;;;;14.68;6.63;;;;;;;;;;5068008;28;20053;-66
2022/04/18 00:05:50;;;;;;;12.30;6.13;;;;;;;;;;5067922;28;20060;-67
2022/04/18 00:08:17;;;;;;;13.50;6.15;;;;;;;;;;5068613;28;20136;-66
2022/04/18 00:10:44;;;;;;;12.25;6.20;;;;;;;;;;5049870;28;20529;-67
2022/04/18 00:13:10;;;;;;;11.07;5.60;;;;;;;;;;5067961;28;20076;-66
2022/04/18 00:15:37;;;;;;;11.70;5.88;;;;;;;;;;5063922;28;95341;-67
2022/04/18 00:18:03;;;;;;;16.10;6.25;;;;;;;;;;5068915;28;20140;-67
2022/04/18 00:20:29;;;;;;;10.13;5.53;;;;;;;;;;5068793;28;20136;-67
2022/04/18 00:22:56;;;;;;;13.88;5.95;;;;;;;;;;5068657;28;20923;-66
2022/04/18 00:25:22;;;;;;;11.50;5.72;;;;;;;;;;5069045;28;20140;-66
2022/04/18 00:27:49;;;;;;;11.15;6.25;;;;;;;;;;5068803;28;20064;-66
2022/04/18 00:30:15;;;;;;;11.02;5.82;;;;;;;;;;5069533;28;20111;-66
2022/04/18 00:32:42;;;;;;;12.88;5.97;;;;;;;;;;5069308;28;20148;-67
2022/04/18 00:35:08;;;;;;;12.73;6.28;;;;;;;;;;5069022;28;20135;-67
2022/04/18 00:37:36;;;;;;;11.80;6.70;;;;;;;;;;5068394;28;20049;-67
2022/04/18 00:40:03;;;;;;;13.43;6.88;;;;;;;;;;5068394;28;20053;-66
2022/04/18 00:42:29;;;;;;;11.68;6.05;;;;;;;;;;5068171;28;20177;-66
2022/04/18 00:44:56;;;;;;;11.20;6.00;;;;;;;;;;5067866;28;20245;-66
2022/04/18 00:47:22;;;;;;;12.18;5.95;;;;;;;;;;5068367;28;20140;-66
2022/04/18 00:49:48;;;;;;;13.55;6.63;;;;;;;;;;5068364;28;20083;-66
2022/04/18 00:52:15;;;;;;;11.75;6.18;;;;;;;;;;5069108;28;20148;-66
2022/04/18 00:54:42;;;;;;;12.43;6.47;;;;;;;;;;5068487;28;20073;-66
2022/04/18 00:57:09;;;;;;;16.13;8.88;;;;;;;;;;5068032;28;20053;-67
2022/04/18 00:59:37;;;;;;;11.27;6.50;;;;;;;;;;5067427;28;20057;-66
2022/04/18 01:02:04;;;;;;;13.95;6.68;;;;;;;;;;5067632;28;20057;-66
2022/04/18 01:04:31;;;;;;;13.40;6.95;;;;;;;;;;5068027;28;20505;-67
2022/04/18 01:06:58;;;;;;;13.30;7.03;;;;;;;;;;5068630;28;20152;-67
2022/04/18 01:09:24;;;;;;;14.25;7.03;;;;;;;;;;5068336;28;20052;-66
2022/04/18 01:11:50;;;;;;;12.82;6.68;;;;;;;;;;5068052;28;20053;-66
2022/04/18 01:14:17;;;;;;;14.35;7.25;;;;;;;;;;5067666;28;20052;-66
2022/04/18 01:16:43;;;;;;;12.68;6.93;;;;;;;;;;5068099;28;20053;-66
2022/04/18 01:19:10;;;;;;;14.95;7.60;;;;;;;;;;5067836;28;20878;-66
2022/04/18 01:21:36;;;;;;;15.68;7.82;;;;;;;;;;5067179;28;20069;-67
2022/04/18 01:28:58;;;;;;;13.38;7.28;;;;;;;;;;5067534;28;20053;-67
2022/04/18 01:29:33;;;;;;;13.02;7.45;;;;;;;;;;5068039;28;20072;-66
2022/04/18 01:32:00;;;;;;;15.32;7.25;;;;;;;;;;5067644;28;20938;-67
2022/04/18 01:34:26;;;;;;;13.63;7.45;;;;;;;;;;5068228;28;20079;-66
2022/04/18 01:36:52;;;;;;;14.80;7.43;;;;;;;;;;5067975;28;20065;-66
2022/04/18 01:39:19;;;;;;;14.15;8.23;;;;;;;;;;5067644;28;20057;-67
2022/04/18 01:41:46;;;;;;;13.93;8.05;;;;;;;;;;5067588;28;20529;-67
2022/04/18 01:44:12;;;;;;;14.05;8.23;;;;;;;;;;5068501;28;20059;-67
2022/04/18 01:46:39;;;;;;;14.38;8.23;;;;;;;;;;5067545;28;20059;-66
2022/04/18 01:49:05;;;;;;;13.00;7.55;;;;;;;;;;5049692;28;20055;-66
2022/04/18 01:51:31;;;;;;;14.73;8.05;;;;;;;;;;5066851;28;20057;-66
2022/04/18 01:53:58;;;;;;;14.70;8.77;;;;;;;;;;5067257;28;20479;-66
2022/04/18 01:56:24;;;;;;;16.33;8.05;;;;;;;;;;5067976;28;20057;-66
2022/04/18 01:58:50;;;;;;;15.98;8.02;;;;;;;;;;5067534;28;20057;-67
2022/04/18 02:01:17;;;;;;;14.75;8.05;;;;;;;;;;5067625;28;20500;-66
2022/04/18 02:03:45;;;;;;;16.55;8.43;;;;;;;;;;5066950;28;20049;-66
2022/04/18 02:06:12;;;;;;;13.25;8.05;;;;;;;;;;5067284;28;20114;-67
2022/04/18 02:08:38;;;;;;;15.30;8.05;;;;;;;;;;5067776;28;20597;-67
2022/04/18 02:11:05;;;;;;;14.88;8.68;;;;;;;;;;5067805;28;20049;-66
2022/04/18 02:13:32;;;;;;;17.20;9.35;;;;;;;;;;5067051;28;20116;-66
2022/04/18 02:15:59;;;;;;;15.60;8.60;;;;;;;;;;5066639;28;20451;-67
2022/04/18 02:18:25;;;;;;;15.90;8.73;;;;;;;;;;5067439;28;20553;-66
2022/04/18 02:20:52;;;;;;;15.55;8.32;;;;;;;;;;5066755;28;20049;-67
2022/04/18 02:23:18;;;;;;;14.13;8.38;;;;;;;;;;5067159;28;20059;-66
2022/04/18 02:25:44;;;;;;;14.73;8.20;;;;;;;;;;5067148;28;20141;-67
2022/04/18 02:28:11;;;;;;;15.77;8.45;;;;;;;;;;5067467;28;20049;-66
2022/04/18 02:30:37;;;;;;;13.38;7.63;;;;;;;;;;5066972;28;20499;-66
2022/04/18 02:33:03;;;;;;;18.75;10.00;;;;;;;;;;5067096;28;20060;-67
2022/04/18 02:35:30;;;;;;;16.55;8.57;;;;;;;;;;5066651;28;20136;-66
2022/04/18 02:37:56;;;;;;;17.80;8.63;;;;;;;;;;5067452;28;20059;-67
2022/04/18 02:40:22;;;;;;;17.25;8.18;;;;;;;;;;5066605;28;20063;-66
2022/04/18 02:42:49;;;;;;;13.57;7.70;;;;;;;;;;5067730;28;20143;-66
2022/04/18 02:45:19;;;;;;;13.48;7.25;;;;;;;;;;5066728;28;20063;-66
2022/04/18 02:47:46;;;;;;;14.30;7.68;;;;;;;;;;5067238;28;20072;-66
2022/04/18 02:50:13;;;;;;;12.73;6.65;;;;;;;;;;5066818;28;20049;-66
2022/04/18 02:52:39;;;;;;;14.60;7.43;;;;;;;;;;5066272;28;20147;-66
2022/04/18 02:55:06;;;;;;;11.70;6.90;;;;;;;;;;5067451;28;20045;-67
2022/04/18 02:57:32;;;;;;;13.18;6.18;;;;;;;;;;5065891;28;20139;-66
2022/04/18 02:59:58;;;;;;;12.48;7.03;;;;;;;;;;5066814;28;20059;-66
2022/04/18 03:02:25;;;;;;;12.23;7.03;;;;;;;;;;5066426;28;20049;-66
2022/04/18 03:04:51;;;;;;;14.50;7.03;;;;;;;;;;5065729;28;20064;-66
2022/04/18 03:07:19;;;;;;;11.75;6.40;;;;;;;;;;5067290;28;20054;-66
2022/04/18 03:09:46;;;;;;;11.23;6.73;;;;;;;;;;5069663;28;20061;-66
2022/04/18 03:12:12;;;;;;;12.05;6.47;;;;;;;;;;5070040;28;20095;-66
2022/04/18 03:14:39;;;;;;;9.93;5.60;;;;;;;;;;5069512;28;20077;-67
2022/04/18 03:17:05;;;;;;;10.23;5.90;;;;;;;;;;5070275;28;20106;-67
2022/04/18 03:19:31;;;;;;;11.75;5.97;;;;;;;;;;5070234;28;20088;-66
2022/04/18 03:21:59;;;;;;;12.70;5.45;;;;;;;;;;5070309;28;20080;-66
2022/04/18 03:24:25;;;;;;;11.45;5.90;;;;;;;;;;5069915;28;20111;-67
2022/04/18 03:26:52;;;;;;;11.88;5.70;;;;;;;;;;5070514;28;20503;-66
2022/04/18 03:29:18;;;;;;;10.55;5.95;;;;;;;;;;5069903;28;20605;-66
2022/04/18 03:31:45;;;;;;;13.50;5.68;;;;;;;;;;5069567;28;20053;-66
2022/04/18 03:34:11;;;;;;;10.32;5.63;;;;;;;;;;5069401;28;20140;-67
2022/04/18 03:42:09;;;;;;;9.23;5.03;;;;;;;;;;5069136;28;20132;-66
2022/04/18 03:44:39;;;;;;;8.67;4.93;;;;;;;;;;5069413;28;20061;-66
2022/04/18 03:47:06;;;;;;;9.13;4.90;;;;;;;;;;5069229;28;20080;-66
2022/04/18 03:49:32;;;;;;;8.32;5.05;;;;;;;;;;5051654;28;20057;-66
2022/04/18 03:51:58;;;;;;;9.93;4.93;;;;;;;;;;5070125;28;20152;-67
2022/04/18 03:54:24;;;;;;;9.98;4.93;;;;;;;;;;5067926;28;20083;-66
2022/04/18 03:56:51;;;;;;;13.95;5.00;;;;;;;;;;5069458;28;20139;-66
2022/04/18 03:59:17;;;;;;;10.52;4.68;;;;;;;;;;5069456;28;20053;-66
2022/04/18 04:01:43;;;;;;;10.52;5.15;;;;;;;;;;5069026;28;20059;-66
2022/04/18 04:04:10;;;;;;;10.00;4.88;;;;;;;;;;5068980;28;20053;-66
2022/04/18 04:06:36;;;;;;;11.10;4.82;;;;;;;;;;5068787;28;20052;-67
2022/04/18 04:09:02;;;;;;;12.00;4.75;;;;;;;;;;5069551;28;20055;-66
2022/04/18 04:11:29;;;;;;;10.45;4.80;;;;;;;;;;5069342;28;20140;-68
2022/04/18 04:13:56;;;;;;;9.38;4.68;;;;;;;;;;5068425;28;20128;-66
2022/04/18 04:16:22;;;;;;;10.00;4.70;;;;;;;;;;5069075;28;20634;-66
2022/04/18 04:18:49;;;;;;;8.60;4.07;;;;;;;;;;5067333;28;20053;-66
2022/04/18 04:21:16;;;;;;;12.77;4.50;;;;;;;;;;5068089;28;20578;-66
2022/04/18 04:23:42;;;;;;;12.02;4.25;;;;;;;;;;5068746;28;20139;-66
2022/04/18 04:26:10;;;;;;;10.27;5.30;;;;;;;;;;5069439;28;20081;-66
2022/04/18 04:28:36;;;;;;;9.35;4.25;;;;;;;;;;5068445;28;20076;-66
2022/04/18 04:31:08;;;;;;;8.52;4.75;;;;;;;;;;5068957;28;20503;-66
2022/04/18 04:33:35;;;;;;;11.13;4.63;;;;;;;;;;5068766;28;20063;-66
2022/04/18 04:36:01;;;;;;;7.50;3.95;;;;;;;;;;5068457;28;20048;-67
2022/04/18 04:38:27;;;;;;;8.48;4.35;;;;;;;;;;5068689;28;20136;-66
2022/04/18 04:40:54;;;;;;;9.48;4.78;;;;;;;;;;5068938;28;20495;-66
2022/04/18 04:43:20;;;;;;;8.23;4.60;;;;;;;;;;5067738;28;20075;-66
2022/04/18 04:45:47;;;;;;;10.55;4.50;;;;;;;;;;5068663;28;20071;-66
2022/04/18 04:48:13;;;;;;;12.68;4.43;;;;;;;;;;5068331;28;20617;-67
2022/04/18 04:50:41;;;;;;;8.40;4.38;;;;;;;;;;5068812;28;20067;-66
2022/04/18 04:53:08;;;;;;;8.18;4.07;;;;;;;;;;5068798;28;20057;-66
2022/04/18 04:55:35;;;;;;;9.70;4.50;;;;;;;;;;5067695;28;20057;-67
2022/04/18 04:58:02;;;;;;;11.80;4.50;;;;;;;;;;5068154;28;20152;-67
2022/04/18 05:00:28;;;;;;;9.77;3.95;;;;;;;;;;5068235;28;20049;-66
2022/04/18 05:02:57;;;;;;;9.98;4.30;;;;;;;;;;5067964;28;20602;-66
2022/04/18 05:05:24;;;;;;;11.45;4.18;;;;;;;;;;5068040;28;20067;-66
2022/04/18 05:07:50;;;;;;;10.40;4.20;;;;;;;;;;5067113;28;20135;-66
2022/04/18 05:10:16;;;;;;;9.02;4.00;;;;;;;;;;5068358;28;20607;-66
2022/04/18 05:12:43;;;;;;;11.18;4.38;;;;;;;;;;5067904;28;20496;-66
2022/04/18 05:15:09;;;;;;;10.10;3.92;;;;;;;;;;5068184;28;20057;-66
2022/04/18 05:17:36;;;;;;;7.93;4.32;;;;;;;;;;5067214;28;20063;-66
2022/04/18 05:20:04;;;;;;;11.02;4.10;;;;;;;;;;5068469;28;20455;-66
2022/04/18 05:22:31;;;;;;;8.68;3.80;;;;;;;;;;5067950;28;20063;-67
2022/04/18 05:24:58;;;;;;;8.38;3.90;;;;;;;;;;5068017;28;20092;-67
2022/04/18 05:27:25;;;;;;;8.20;3.47;;;;;;;;;;5067903;28;20049;-66
2022/04/18 05:29:51;;;;;;;9.15;4.63;;;;;;;;;;5067430;28;20127;-66
2022/04/18 05:32:17;;;;;;;8.95;3.90;;;;;;;;;;5067599;28;20056;-66
2022/04/18 05:34:44;;;;;;;8.57;4.03;;;;;;;;;;5067198;28;20059;-66
2022/04/18 05:37:10;;;;;;;8.48;3.97;;;;;;;;;;5066117;28;20057;-66
2022/04/18 05:39:37;;;;;;;10.48;3.88;;;;;;;;;;5067854;28;20136;-67
2022/04/18 05:42:03;;;;;;;10.07;4.47;;;;;;;;;;5068338;28;20478;-67
2022/04/18 05:44:31;;;;;;;8.60;4.25;;;;;;;;;;5067851;28;20063;-66
2022/04/18 05:46:57;;;;;;;8.80;3.80;;;;;;;;;;5068270;28;20055;-67
2022/04/18 05:49:23;;;;;;;9.77;4.10;;;;;;;;;;5068012;28;20370;-67
2022/04/18 05:51:50;;;;;;;9.85;4.20;;;;;;;;;;5066415;28;20059;-66
2022/04/18 05:54:16;;;;;;;9.30;4.20;;;;;;;;;;5068138;28;22191;-67
2022/04/18 05:56:42;;;;;;;8.32;3.63;;;;;;;;;;5067567;28;20204;-66
2022/04/18 05:59:09;;;;;;;9.05;4.07;;;;;;;;;;5068005;28;20056;-67
2022/04/18 06:01:35;;;;;;;9.50;3.45;;;;;;;;;;5066787;28;20045;-67
2022/04/18 06:04:02;;;;;;;6.65;3.83;;;;;;;;;;5049665;28;20068;-66
2022/04/18 06:06:29;;;;;;;8.27;3.63;;;;;;;;;;5065834;28;20053;-66
2022/04/18 06:08:55;;;;;;;8.15;3.78;;;;;;;;;;5067672;28;20059;-66
2022/04/18 06:11:21;;;;;;;7.68;3.50;;;;;;;;;;5067034;28;20147;-67
2022/04/18 06:13:47;;;;;;;6.10;3.45;;;;;;;;;;5067597;28;20807;-67
2022/04/18 06:16:14;;;;;;;8.63;3.65;;;;;;;;;;5067632;28;20503;-67
2022/04/18 06:18:40;;;;;;;7.47;3.50;;;;;;;;;;5066395;28;20049;-67
2022/04/18 06:21:07;;;;;;;7.88;3.25;;;;;;;;;;5066678;28;20465;-67
2022/04/18 06:23:33;;;;;;;8.27;3.60;;;;;;;;;;5067103;28;20581;-67
2022/04/18 06:25:59;;;;;;;8.15;3.05;;;;;;;;;;5066569;28;20132;-67
2022/04/18 06:28:29;;;;;;;9.93;3.85;;;;;;;;;;5067262;28;20053;-66
2022/04/18 06:30:55;;;;;;;7.78;3.13;;;;;;;;;;5067000;28;20063;-66
2022/04/18 06:33:22;;;;;;;6.90;2.50;;;;;;;;;;5067064;28;20267;-66
2022/04/18 06:35:48;;;;;;;6.75;2.90;;;;;;;;;;5066825;28;20144;-66
2022/04/18 06:38:14;;;;;;;6.85;3.20;;;;;;;;;;5067635;28;20057;-68
2022/04/18 06:40:40;;;;;;;7.13;2.65;;;;;;;;;;5066700;28;20052;-67
2022/04/18 06:43:07;;;;;;;7.38;3.38;;;;;;;;;;5068926;28;20053;-66
2022/04/18 06:45:33;;;;;;;5.45;2.65;;;;;;;;;;5070148;28;20048;-67
2022/04/18 06:47:59;;;;;;;5.88;2.50;;;;;;;;;;5070456;28;20053;-66
2022/04/18 06:50:26;;;;;;;6.10;2.80;;;;;;;;;;5070773;28;20139;-67
2022/04/18 06:52:54;;;;;;;6.07;2.65;;;;;;;;;;5070456;28;20079;-68
2022/04/18 06:55:20;;;;;;;6.97;2.53;;;;;;;;;;5070007;28;20045;-68
2022/04/18 06:57:46;;;;;;;6.00;2.63;;;;;;;;;;5052216;28;20140;-68
2022/04/18 07:00:13;;;;;;;8.57;3.30;;;;;;;;;;5070316;28;20862;-68
2022/04/18 07:02:46;;;;;;;8.05;3.35;;;;;;;;;;5070528;28;20061;-69
2022/04/18 07:05:12;;;;;;;6.63;3.38;;;;;;;;;;5070080;28;20052;-68
2022/04/18 07:07:38;;;;;;;9.02;3.75;;;;;;;;;;5069882;28;20056;-68
2022/04/18 07:10:05;;;;;;;7.43;3.00;;;;;;;;;;5069677;28;20071;-68
2022/04/18 07:12:31;;;;;;;6.35;2.90;;;;;;;;;;5051529;28;20077;-68
2022/04/18 07:15:00;;;;;;;6.63;2.80;;;;;;;;;;5069670;28;20147;-68
2022/04/18 07:17:27;;;;;;;5.50;2.63;;;;;;;;;;5070326;28;20499;-68
2022/04/18 07:19:53;;;;;;;6.93;2.85;;;;;;;;;;5070378;28;20064;-68
2022/04/18 07:22:19;;;;;;;6.93;2.42;;;;;;;;;;5069802;28;20166;-69
2022/04/18 07:24:46;;;;;;;7.25;2.78;;;;;;;;;;5069375;28;20059;-68
2022/04/18 07:27:12;;;;;;;7.10;3.08;;;;;;;;;;5070154;28;20140;-68
2022/04/18 07:29:38;;;;;;;5.22;2.80;;;;;;;;;;5070105;28;20053;-68
2022/04/18 07:32:05;;;;;;;6.43;2.50;;;;;;;;;;5070250;28;20052;-68
2022/04/18 07:34:34;;;;;;;7.32;2.42;;;;;;;;;;5068419;28;20144;-68
2022/04/18 07:37:01;;;;;;;;;;;;;;;;;;5069394;28;20072;-66
2022/04/18 07:39:27;;;;;;;4.30;2.35;;;;;;;;;;5069068;28;44856;-70
2022/04/18 07:41:53;;;;;;;6.85;2.45;;;;;;;;;;5069944;28;20053;-66
2022/04/18 07:44:20;;;;;;;4.90;1.88;;;;;;;;;;5069301;28;20488;-70
2022/04/18 07:46:47;;;;;;;5.28;2.03;;;;;;;;;;5069412;28;20088;-68
2022/04/18 07:49:13;;;;;;;4.80;2.10;;;;;;;;;;5069747;28;20436;-69
2022/04/18 07:51:41;;;;;;;3.85;1.80;;;;;;;;;;5069244;28;20096;-68
2022/04/18 07:54:09;;;;;;;7.60;2.75;;;;;;;;;;5068572;28;20954;-69
2022/04/18 07:56:35;;;;;;;6.18;2.47;;;;;;;;;;5069269;28;20499;-68
2022/04/18 07:59:02;;;;;;;5.30;2.00;;;;;;;;;;5068926;28;20503;-68
2022/04/18 08:01:29;;;;;;;5.07;1.75;;;;;;;;;;5069808;28;20053;-68
2022/04/18 08:03:57;;;;;;;4.45;1.90;;;;;;;;;;5069344;28;20057;-68
2022/04/18 08:06:23;;;;;;;5.00;1.90;;;;;;;;;;5069201;28;20143;-68
2022/04/18 08:08:49;;;;;;;4.05;1.60;;;;;;;;;;5069510;28;20074;-68
2022/04/18 08:11:16;;;;;;;5.18;2.00;;;;;;;;;;5069191;28;20052;-68
2022/04/18 08:13:43;;;;;;;4.32;1.95;;;;;;;;;;5068975;28;20584;-68
2022/04/18 08:16:10;;;;;;;4.03;1.63;;;;;;;;;;5068373;28;20059;-68
2022/04/18 08:18:39;;;;;;;4.07;1.92;;;;;;;;;;5068840;28;20052;-68
2022/04/18 08:21:06;;;;;;;7.75;1.65;;;;;;;;;;5067982;28;20077;-69
2022/04/18 08:23:33;;;;;;;4.45;1.95;;;;;;;;;;5068765;28;20503;-65
2022/04/18 08:25:59;;;;;;;3.88;1.70;;;;;;;;;;5069937;28;20103;-68
2022/04/18 08:28:26;;;;;;;3.83;1.60;;;;;;;;;;5068772;28;20316;-68
2022/04/18 08:30:53;;;;;;;4.35;1.50;;;;;;;;;;5068844;28;20441;-68
2022/04/18 08:33:22;;;;;;;3.67;1.73;;;;;;;;;;5068468;28;20474;-66
2022/04/18 08:35:49;;;;;;;4.70;1.70;;;;;;;;;;5068758;28;20144;-66
2022/04/18 08:38:15;;;;;;;3.45;1.60;;;;;;;;;;5068571;28;20140;-67
2022/04/18 08:40:42;;;;;;;4.47;1.83;;;;;;;;;;5068716;28;20071;-66
2022/04/18 08:43:09;;;;;;;3.88;1.60;;;;;;;;;;5069190;28;20077;-66
2022/04/18 08:45:39;;;;;;;4.80;2.08;;;;;;;;;;5067662;28;20148;-66
2022/04/18 08:53:36;;;;;;;4.93;1.50;;;;;;;;;;5068067;28;20057;-66
2022/04/18 08:56:03;;;;;;;2.47;1.40;;;;;;;;;;5068320;28;20140;-66
2022/04/18 08:58:29;;;;;;;4.40;1.58;;;;;;;;;;5068294;28;20152;-66
2022/04/18 09:00:56;;;;;;;4.10;1.58;;;;;;;;;;5067960;28;20076;-66
2022/04/18 09:03:25;;;;;;;3.58;1.50;;;;;;;;;;5068440;28;20061;-66
2022/04/18 09:06:10;;;;;;;4.85;1.55;;;;;;;;;;5067719;28;20057;-66
2022/04/18 09:08:44;;;;;;;4.85;1.65;;;;;;;;;;5068208;28;20138;-69
2022/04/18 09:11:11;;;;;;;4.00;1.80;;;;;;;;;;5068679;28;20139;-67
2022/04/18 09:13:42;;;;;;;3.33;1.65;;;;;;;;;;5067898;28;20075;-67
2022/04/18 09:16:14;;;;;;;3.55;1.70;;;;;;;;;;5067670;28;20450;-67
2022/04/18 09:18:42;;;;;;;5.45;1.60;;;;;;;;;;5067426;28;20060;-68
2022/04/18 09:21:08;;;;;;;;;;;;;;;;;;5068962;28;20156;-67
2022/04/18 09:23:35;;;;;;;3.63;1.70;;;;;;;;;;5067604;28;44584;-67
2022/04/18 09:26:03;;;;;;;3.25;1.70;;;;;;;;;;5067707;28;20055;-66
2022/04/18 09:28:29;;;;;;;5.32;2.20;;;;;;;;;;5067718;28;20053;-66
2022/04/18 09:30:59;;;;;;;6.10;2.10;;;;;;;;;;5068060;28;20045;-68
2022/04/18 09:33:32;;;;;;;3.92;1.70;;;;;;;;;;5067818;28;20061;-67
2022/04/18 09:36:05;;;;;;;5.10;1.80;;;;;;;;;;5068239;28;20059;-67
2022/04/18 09:38:34;;;;;;;3.40;1.73;;;;;;;;;;5066528;28;20835;-67
2022/04/18 09:41:01;;;;;;;4.18;1.67;;;;;;;;;;5067346;28;20940;-66
2022/04/18 09:43:37;;;;;;;6.85;2.20;;;;;;;;;;5067266;28;20057;-67
2022/04/18 09:46:04;;;;;;;5.78;1.90;;;;;;;;;;5067389;28;20059;-67
2022/04/18 09:48:36;;;;;;;3.80;1.80;;;;;;;;;;5067754;28;20069;-67
2022/04/18 09:51:08;;;;;;;5.05;1.80;;;;;;;;;;5067108;28;20061;-66
2022/04/18 09:53:35;;;;;;;5.50;1.80;;;;;;;;;;5068088;28;20084;-66
2022/04/18 09:56:01;;;;;;;5.85;1.88;;;;;;;;;;5067861;28;20960;-67
2022/04/18 09:58:30;;;;;;;3.90;2.05;;;;;;;;;;5067759;28;20049;-67
2022/04/18 10:01:16;;;;;;;2.95;1.70;;;;;;;;;;5067326;28;20063;-67
2022/04/18 10:03:43;;;;;;;6.63;2.15;;;;;;;;;;5066744;28;20426;-66
2022/04/18 10:06:10;;;;;;;4.30;2.00;;;;;;;;;;5067564;28;20049;-67
2022/04/18 10:08:37;;;;;;;3.50;1.70;;;;;;;;;;5066657;28;20055;-67
2022/04/18 10:11:04;;;;;;;4.25;1.83;;;;;;;;;;5067895;28;20605;-66
2022/04/18 10:13:31;;;;;;;4.68;2.00;;;;;;;;;;5066906;28;20495;-67
2022/04/18 10:15:59;;;;;;;4.13;1.80;;;;;;;;;;5067444;28;20116;-67
2022/04/18 10:18:26;;;;;;;5.80;2.08;;;;;;;;;;5070571;28;20059;-67
2022/04/18 10:21:02;;;;;;;5.15;2.22;;;;;;;;;;5070832;28;20111;-66
2022/04/18 10:23:48;;;;;;;6.20;2.25;;;;;;;;;;5071107;28;20511;-66
2022/04/18 10:26:26;;;;;;;4.10;2.00;;;;;;;;;;5070552;28;20842;-66
2022/04/18 10:28:53;;;;;;;3.60;1.80;;;;;;;;;;5069983;28;20056;-66
2022/04/18 10:31:23;;;;;;;4.90;2.08;;;;;;;;;;5070283;28;20061;-66
2022/04/18 10:33:49;;;;;;;5.10;1.90;;;;;;;;;;5070458;28;20052;-66
2022/04/18 10:36:26;;;;;;;4.05;1.75;;;;;;;;;;5070135;28;20570;-66
2022/04/18 10:38:52;;;;;;;3.83;1.85;;;;;;;;;;5070512;28;20565;-66
2022/04/18 10:41:36;;;;;;;4.30;2.10;;;;;;;;;;5070996;28;20151;-66
2022/04/18 10:44:03;;;;;;;4.93;1.90;;;;;;;;;;5070459;28;20145;-67
2022/04/18 10:46:29;;;;;;;3.88;1.90;;;;;;;;;;5070236;28;20145;-66
2022/04/18 10:48:56;;;;;;;5.65;1.90;;;;;;;;;;5070152;28;20092;-66
2022/04/18 10:51:36;;;;;;;5.00;1.90;;;;;;;;;;5070555;28;20144;-66
2022/04/18 10:54:08;;;;;;;4.28;1.85;;;;;;;;;;5069725;28;20538;-66
2022/04/18 10:56:48;;;;;;;4.28;2.13;;;;;;;;;;5069396;28;20059;-67
2022/04/18 10:59:15;;;;;;;4.20;1.90;;;;;;;;;;5070403;28;20091;-67
2022/04/18 11:01:42;;;;;;;4.47;2.03;;;;;;;;;;5070624;28;20052;-66
2022/04/18 11:04:12;;;;;;;7.35;1.85;;;;;;;;;;5070386;28;20061;-66
2022/04/18 11:06:40;;;;;;;5.47;2.00;;;;;;;;;;5069847;28;20057;-67
2022/04/18 11:09:07;;;;;;;5.53;1.85;;;;;;;;;;5069442;28;20437;-67
2022/04/18 11:11:49;;;;;;;3.80;1.67;;;;;;;;;;5070061;28;20053;-67
2022/04/18 11:14:19;;;;;;;5.13;1.85;;;;;;;;;;5070035;28;20164;-67
2022/04/18 11:16:47;;;;;;;2.90;1.60;;;;;;;;;;5069714;28;20057;-67
2022/04/18 11:19:13;;;;;;;4.15;2.10;;;;;;;;;;5069534;28;20567;-68
2022/04/18 11:21:55;;;;;;;4.13;1.65;;;;;;;;;;5070246;28;20132;-68
2022/04/18 11:24:37;;;;;;;4.72;1.92;;;;;;;;;;5069700;28;20537;-66
2022/04/18 11:27:06;;;;;;;4.50;1.77;;;;;;;;;;5070403;28;20569;-66
2022/04/18 11:29:32;;;;;;;3.90;1.60;;;;;;;;;;5069470;28;20520;-66
2022/04/18 11:31:59;;;;;;;4.53;1.40;;;;;;;;;;5070012;28;20056;-66
2022/04/18 11:34:26;;;;;;;5.18;1.50;;;;;;;;;;5051960;28;20053;-66
2022/04/18 11:36:54;;;;;;;3.72;1.42;;;;;;;;;;5069442;28;20045;-66
2022/04/18 11:39:21;;;;;;;;;;;;;;;;;;5069635;28;20140;-66
2022/04/18 11:41:47;;;;;;;3.67;1.45;;;;;;;;;;5067448;28;43245;-67
2022/04/18 11:44:20;;;;;;;5.25;1.70;;;;;;;;;;5069424;28;20063;-67
2022/04/18 11:46:47;;;;;;;7.97;1.70;;;;;;;;;;5069464;28;20049;-67
2022/04/18 11:49:13;;;;;;;3.08;1.45;;;;;;;;;;5069742;28;20933;-67
2022/04/18 11:51:40;;;;;;;3.85;1.63;;;;;;;;;;5069355;28;20052;-67
2022/04/18 11:54:06;;;;;;;4.45;1.60;;;;;;;;;;5069308;28;20139;-67
2022/04/18 11:56:33;;;;;;;4.65;1.70;;;;;;;;;;5069268;28;20598;-67
2022/04/18 11:59:05;;;;;;;3.95;1.40;;;;;;;;;;5068867;28;20092;-67
2022/04/18 12:07:02;;;;;;;3.08;1.50;;;;;;;;;;5069383;28;20598;-67
2022/04/18 12:09:30;;;;;;;4.22;1.67;;;;;;;;;;5068532;28;20077;-67
2022/04/18 12:11:58;;;;;;;4.05;1.80;;;;;;;;;;5069259;28;20701;-67
2022/04/18 12:14:30;;;;;;;7.32;1.77;;;;;;;;;;5068990;28;20144;-67
2022/04/18 12:16:59;;;;;;;3.60;1.45;;;;;;;;;;5068714;28;20041;-67
2022/04/18 12:19:27;;;;;;;3.72;1.55;;;;;;;;;;5068998;28;20513;-67
2022/04/18 12:21:54;;;;;;;5.20;1.77;;;;;;;;;;5068572;28;20053;-67
2022/04/18 12:24:20;;;;;;;3.80;1.80;;;;;;;;;;5069172;28;20057;-67
2022/04/18 12:26:51;;;;;;;4.95;1.80;;;;;;;;;;5068828;28;20061;-67
2022/04/18 12:29:19;;;;;;;5.28;1.98;;;;;;;;;;5051736;28;20052;-67
2022/04/18 12:31:45;;;;;;;3.93;1.80;;;;;;;;;;5068640;28;20577;-67
2022/04/18 12:34:21;;;;;;;4.88;2.13;;;;;;;;;;5067685;28;20174;-67
2022/04/18 12:36:55;;;;;;;4.65;2.00;;;;;;;;;;5050888;28;20503;-67
2022/04/18 12:39:22;;;;;;;4.07;1.90;;;;;;;;;;5068538;28;20053;-68
2022/04/18 12:41:49;;;;;;;4.75;1.80;;;;;;;;;;5067935;28;20578;-68
2022/04/18 12:44:15;;;;;;;3.60;1.77;;;;;;;;;;5068877;28;20071;-67
2022/04/18 12:46:42;;;;;;;4.53;1.80;;;;;;;;;;5068482;28;20063;-67
2022/04/18 12:49:09;;;;;;;6.07;2.17;;;;;;;;;;5069046;28;20049;-67
2022/04/18 12:51:40;;;;;;;3.70;1.80;;;;;;;;;;5067934;28;20057;-67
2022/04/18 12:54:19;;;;;;;5.78;2.10;;;;;;;;;;5068662;28;20060;-68
2022/04/18 12:56:46;;;;;;;3.60;1.60;;;;;;;;;;5068322;28;20069;-67
2022/04/18 12:59:14;;;;;;;5.00;1.73;;;;;;;;;;5067506;28;20088;-68
2022/04/18 13:01:40;;;;;;;2.85;1.55;;;;;;;;;;5068450;28;20515;-68
2022/04/18 13:04:21;;;;;;;4.90;1.85;;;;;;;;;;5068535;28;20541;-67
2022/04/18 13:06:55;;;;;;;3.60;1.70;;;;;;;;;;5067646;28;20079;-67
2022/04/18 13:09:21;;;;;;;4.22;2.00;;;;;;;;;;5068459;28;20045;-67
2022/04/18 13:11:47;;;;;;;6.22;2.00;;;;;;;;;;5068158;28;20114;-68
2022/04/18 13:14:14;;;;;;;4.18;1.60;;;;;;;;;;5068138;28;20427;-67
2022/04/18 13:16:42;;;;;;;4.15;2.03;;;;;;;;;;5067588;28;20585;-67
2022/04/18 13:19:09;;;;;;;3.92;1.98;;;;;;;;;;5068512;28;20111;-67
2022/04/18 13:21:36;;;;;;;4.70;2.33;;;;;;;;;;5069255;28;20052;-68
2022/04/18 13:24:02;;;;;;;4.55;2.08;;;;;;;;;;5067979;28;20081;-67
2022/04/18 13:26:29;;;;;;;3.85;1.98;;;;;;;;;;5068560;28;20416;-68
2022/04/18 13:28:56;;;;;;;6.07;2.30;;;;;;;;;;5068526;28;20055;-68
2022/04/18 13:31:23;;;;;;;4.32;2.20;;;;;;;;;;5069176;28;20148;-67
2022/04/18 13:33:51;;;;;;;5.82;2.47;;;;;;;;;;5069548;28;20060;-67
2022/04/18 13:39:06;;;;;;;5.20;2.30;;;;;;;;;;5068393;28;20056;-68
2022/04/18 13:41:33;;;;;;;6.20;2.30;;;;;;;;;;5068975;28;20055;-67
2022/04/18 13:43:59;;;;;;;5.90;2.35;;;;;;;;;;5068929;28;20587;-68
2022/04/18 13:46:27;;;;;;;4.07;2.20;;;;;;;;;;5067739;28;20053;-68
2022/04/18 13:48:53;;;;;;;5.47;2.47;;;;;;;;;;5068142;28;20052;-68
2022/04/18 13:51:23;;;;;;;5.35;2.75;;;;;;;;;;5068732;28;20053;-68
2022/04/18 13:53:52;;;;;;;5.85;2.55;;;;;;;;;;5069014;28;20084;-67
2022/04/18 13:56:19;;;;;;;7.88;2.50;;;;;;;;;;5068792;28;20064;-67
2022/04/18 13:58:46;;;;;;;5.93;2.43;;;;;;;;;;5068994;28;20251;-66
2022/04/18 14:01:12;;;;;;;6.28;3.03;;;;;;;;;;5067749;28;20848;-67
2022/04/18 14:03:39;;;;;;;6.32;2.92;;;;;;;;;;5068400;28;20057;-67
2022/04/18 14:06:07;;;;;;;6.20;2.90;;;;;;;;;;5068080;28;20092;-67
2022/04/18 14:08:37;;;;;;;7.10;2.90;;;;;;;;;;5068263;28;20152;-67
2022/04/18 14:11:04;;;;;;;6.25;2.95;;;;;;;;;;5068458;28;20143;-66
2022/04/18 14:13:30;;;;;;;7.85;2.90;;;;;;;;;;5067901;28;20085;-67
2022/04/18 14:21:27;;;;;;;7.45;3.15;;;;;;;;;;5068665;28;20051;-68
2022/04/18 14:23:53;;;;;;;7.53;2.97;;;;;;;;;;5068727;28;20041;-68
2022/04/18 14:26:20;;;;;;;8.15;3.20;;;;;;;;;;5067613;28;20053;-67
2022/04/18 14:28:47;;;;;;;6.45;3.38;;;;;;;;;;5067606;28;20149;-67
2022/04/18 14:31:13;;;;;;;6.03;2.67;;;;;;;;;;5068338;28;20144;-67
2022/04/18 14:33:39;;;;;;;5.60;2.67;;;;;;;;;;5068080;28;20064;-67
2022/04/18 14:36:07;;;;;;;9.30;2.72;;;;;;;;;;5068284;28;20053;-66
2022/04/18 14:38:34;;;;;;;6.68;2.60;;;;;;;;;;5067227;28;20164;-66
2022/04/18 14:41:01;;;;;;;6.30;2.45;;;;;;;;;;5068478;28;20159;-66
2022/04/18 14:43:28;;;;;;;5.45;3.10;;;;;;;;;;5068198;28;20049;-66
2022/04/18 14:45:54;;;;;;;5.13;2.85;;;;;;;;;;5067957;28;20152;-66
2022/04/18 14:48:21;;;;;;;4.85;2.92;;;;;;;;;;5067748;28;20130;-66
2022/04/18 14:50:47;;;;;;;11.25;2.75;;;;;;;;;;5067470;28;21034;-66
2022/04/18 14:53:16;;;;;;;4.97;2.70;;;;;;;;;;5068361;28;20222;-66
2022/04/18 14:55:43;;;;;;;5.22;2.88;;;;;;;;;;5066909;28;20143;-66
2022/04/18 14:58:10;;;;;;;8.60;3.17;;;;;;;;;;5067362;28;20136;-67
2022/04/18 15:00:37;;;;;;;5.45;2.67;;;;;;;;;;5065787;28;20148;-66
2022/04/18 15:03:04;;;;;;;6.00;3.03;;;;;;;;;;5048595;28;20049;-67
2022/04/18 15:05:31;;;;;;;4.68;2.50;;;;;;;;;;5070319;28;20057;-66
2022/04/18 15:07:57;;;;;;;5.85;2.70;;;;;;;;;;5070128;28;20049;-66
2022/04/18 15:10:24;;;;;;;8.23;2.70;;;;;;;;;;5070433;28;20716;-66